Time;durP1;ratioP1;P1;durP2;ratioP2;P2;SDS_P1;SDS_P2;PMS_P1;PMS_P2;Temp;Humidity;BMP_temperature;BMP_pressure;BME280_temperature;BME280_humidity;BME280_pressure;Samples;Min_cycle;Max_cycle;Signal;HPM_P1;HPM_P2
2021/01/23 00:01:00;;;;;;;;;27.75;25.75;;;;;6.74;77.22;101547.13;6156130;23;11591;-72
2021/01/23 00:03:56;;;;;;;;;19.50;19.50;;;;;6.81;77.23;101547.63;6154888;23;12426;-72
2021/01/23 00:06:23;;;;;;;;;26.50;25.50;;;;;6.82;77.41;101548.47;6164830;23;11595;-71
2021/01/23 00:09:12;;;;;;;;;27.50;27.00;;;;;6.92;76.73;101549.22;6156529;23;11604;-72
2021/01/23 00:12:08;;;;;;;;;23.75;23.75;;;;;7.00;76.75;101555.22;6154758;23;11597;-71
2021/01/23 00:15:05;;;;;;;;;20.75;20.25;;;;;6.89;77.08;101544.28;6154873;23;11633;-71
2021/01/23 00:17:32;;;;;;;;;21.25;21.25;;;;;6.91;77.21;101542.09;6156659;23;11567;-72
2021/01/23 00:20:00;;;;;;;;;28.50;25.50;;;;;7.05;76.95;101542.25;6164838;23;11593;-71
2021/01/23 00:22:45;;;;;;;;;26.75;26.75;;;;;7.12;76.33;101537.25;6157050;23;11588;-71
2021/01/23 00:25:12;;;;;;;;;28.25;26.75;;;;;7.12;76.61;101534.50;6164540;23;11604;-71
2021/01/23 00:27:43;;;;;;;;;20.25;20.25;;;;;7.16;76.61;101529.25;6164795;23;12272;-71
2021/01/23 00:30:11;;;;;;;;;31.75;30.00;;;;;7.15;76.22;101533.13;6164693;23;11609;-71
2021/01/23 00:32:52;;;;;;;;;21.25;21.25;;;;;7.15;76.10;101538.63;6155676;23;11614;-70
2021/01/23 00:35:19;;;;;;;;;29.00;28.75;;;;;7.19;75.76;101529.47;6164573;23;11618;-70
2021/01/23 00:38:00;;;;;;;;;26.00;26.00;;;;;7.16;76.06;101530.06;6155886;23;11604;-70
2021/01/23 00:40:28;;;;;;;;;27.50;25.75;;;;;7.12;75.85;101537.25;6164544;23;11641;-70
2021/01/23 00:42:57;;;;;;;;;15.25;15.25;;;;;7.08;76.03;101529.88;6157066;23;11619;-70
2021/01/23 00:45:25;;;;;;;;;19.25;19.25;;;;;7.05;75.95;101534.00;6164870;23;11593;-70
2021/01/23 00:47:53;;;;;;;;;22.75;22.75;;;;;7.10;75.93;101527.63;6164490;23;11650;-70
2021/01/23 00:50:21;;;;;;;;;26.25;26.00;;;;;7.13;75.28;101525.16;6164771;23;11585;-70
2021/01/23 00:52:49;;;;;;;;;26.00;26.00;;;;;7.13;75.60;101525.16;6164475;23;11678;-70
2021/01/23 00:55:16;;;;;;;;;25.50;24.50;;;;;7.06;75.55;101512.84;6164651;23;12309;-70
2021/01/23 00:57:43;;;;;;;;;25.25;23.50;;;;;7.05;75.49;101520.22;6164631;23;11570;-70
2021/01/23 01:00:12;;;;;;;;;25.50;23.75;;;;;7.02;75.42;101514.50;6164493;23;11606;-70
2021/01/23 01:02:55;;;;;;;;;25.00;24.50;;;;;6.94;75.93;101514.00;6164235;23;11576;-70
2021/01/23 01:05:23;;;;;;;;;26.25;25.25;;;;;6.92;75.94;101507.97;6130001;23;11660;-70
2021/01/23 01:07:50;;;;;;;;;26.25;25.75;;;;;6.97;76.04;101505.16;6138659;23;11611;-70
2021/01/23 01:10:18;;;;;;;;;28.50;27.75;;;;;6.94;75.91;101513.19;6138756;23;11586;-70
2021/01/23 01:12:45;;;;;;;;;27.00;25.00;;;;;6.99;75.89;101513.16;6163996;23;11592;-70
2021/01/23 01:15:13;;;;;;;;;23.75;23.75;;;;;7.02;75.79;101498.00;6138678;23;11615;-70
2021/01/23 01:18:09;;;;;;;;;23.25;22.75;;;;;6.88;76.65;101498.66;6154236;23;11707;-70
2021/01/23 01:20:58;;;;;;;;;22.75;21.75;;;;;6.93;76.20;101497.78;6156160;23;11693;-70
2021/01/23 01:23:25;;;;;;;;;26.25;23.50;;;;;6.88;76.77;101493.16;6138158;23;11578;-70
2021/01/23 01:25:53;;;;;;;;;23.25;22.25;;;;;6.99;75.95;101496.66;6164105;23;11640;-70
2021/01/23 01:28:21;;;;;;;;;26.00;24.50;;;;;6.99;76.17;101484.84;6138389;23;11570;-70
2021/01/23 01:31:06;;;;;;;;;21.00;21.00;;;;;6.94;76.25;101486.50;6156620;23;11637;-70
2021/01/23 01:34:01;;;;;;;;;25.75;23.75;;;;;6.96;76.28;101480.72;6154799;23;11613;-70
2021/01/23 01:36:30;;;;;;;;;25.75;25.50;;;;;7.01;76.11;101483.44;6164092;23;11594;-70
2021/01/23 01:39:09;;;;;;;;;25.50;25.50;;;;;6.91;76.66;101484.34;6163802;23;11584;-70
2021/01/23 01:42:05;;;;;;;;;30.00;27.00;;;;;6.95;76.59;101481.81;6153693;23;11597;-70
2021/01/23 01:44:32;;;;;;;;;21.75;21.75;;;;;6.94;76.74;101480.19;6138256;23;11671;-70
2021/01/23 01:47:00;;;;;;;;;22.50;22.50;;;;;6.86;76.64;101473.38;6155324;23;11584;-70
2021/01/23 01:49:29;;;;;;;;;21.00;18.50;;;;;6.92;76.74;101479.66;6163975;23;11596;-70
2021/01/23 01:52:18;;;;;;;;;17.00;17.00;;;;;6.91;76.75;101473.34;6156108;23;11571;-70
2021/01/23 01:55:14;;;;;;;;;18.25;18.25;;;;;6.86;76.81;101478.88;6153909;23;12379;-70
2021/01/23 01:58:10;;;;;;;;;19.25;19.25;;;;;6.98;77.14;101470.25;6154141;23;11593;-70
2021/01/23 02:01:05;;;;;;;;;19.50;19.50;;;;;6.86;76.93;101472.56;6153950;23;11597;-70
2021/01/23 02:04:06;;;;;;;;;19.00;19.00;;;;;6.87;77.29;101468.69;6155039;23;11790;-70
2021/01/23 02:07:02;;;;;;;;;25.75;25.75;;;;;6.95;76.86;101465.31;6163839;23;11578;-70
2021/01/23 02:10:09;;;;;;;;;22.00;22.00;;;;;6.94;76.92;101461.75;6163771;23;12304;-70
2021/01/23 02:13:16;;;;;;;;;26.50;25.50;;;;;7.04;76.94;101462.78;6163670;23;11605;-70
2021/01/23 02:16:13;;;;;;;;;25.75;25.75;;;;;6.95;77.24;101462.56;6163871;23;11589;-70
2021/01/23 02:19:35;;;;;;;;;18.25;18.25;;;;;7.04;76.77;101462.78;6123210;23;11618;-70
2021/01/23 02:22:15;;;;;;;;;23.75;23.75;;;;;7.05;77.06;101461.66;6121612;23;11628;-70
2021/01/23 02:24:47;;;;;;;;;20.00;20.00;;;;;6.95;77.16;101465.31;6163809;23;11577;-70
2021/01/23 02:27:45;;;;;;;;;23.00;21.00;;;;;6.98;77.20;101467.50;6163710;23;11607;-70
2021/01/23 02:30:19;;;;;;;;;17.50;17.50;;;;;7.05;76.94;101464.41;6163477;23;11680;-70
2021/01/23 02:33:16;;;;;;;;;17.00;15.00;;;;;6.93;77.51;101473.03;6153283;23;11605;-70
2021/01/23 02:35:45;;;;;;;;;18.50;18.50;;;;;6.97;77.31;101474.09;6129651;23;11595;-70
2021/01/23 02:38:14;;;;;;;;;17.00;17.00;;;;;6.90;76.72;101474.44;6163679;23;11579;-70
2021/01/23 02:41:05;;;;;;;;;18.00;18.00;;;;;6.94;77.37;101467.25;6134564;23;11597;-70
2021/01/23 02:43:33;;;;;;;;;17.50;17.50;;;;;7.07;76.46;101470.47;6163639;23;11565;-70
2021/01/23 02:46:17;;;;;;;;;18.75;18.50;;;;;6.95;77.10;101471.63;6154617;23;11629;-70
2021/01/23 02:49:13;;;;;;;;;18.50;17.75;;;;;7.02;76.54;101473.25;6154409;23;11602;-70
2021/01/23 02:52:02;;;;;;;;;16.50;16.50;;;;;7.02;76.32;101467.75;6138233;23;11616;-70
2021/01/23 02:54:47;;;;;;;;;15.00;15.00;;;;;6.94;76.56;101463.69;6163610;23;11581;-70
2021/01/23 02:57:18;;;;;;;;;16.00;16.00;;;;;7.02;76.18;101470.50;6163720;23;12228;-70
2021/01/23 03:00:16;;;;;;;;;15.00;14.50;;;;;6.78;76.63;101467.66;6153403;23;12331;-70
2021/01/23 03:02:52;;;;;;;;;18.00;18.00;;;;;6.85;76.78;101468.97;6163412;23;11584;-70
2021/01/23 03:05:29;;;;;;;;;21.25;20.00;;;;;6.89;76.63;101469.22;6163402;23;11573;-70
2021/01/23 03:07:57;;;;;;;;;14.00;13.50;;;;;6.91;76.36;101467.03;6163449;23;11618;-70
2021/01/23 03:10:45;;;;;;;;;15.50;15.50;;;;;6.89;76.55;101471.97;6161852;23;11566;-70
2021/01/23 03:13:14;;;;;;;;;22.00;18.00;;;;;6.90;76.26;101468.94;6137618;23;11592;-70
2021/01/23 03:15:42;;;;;;;;;17.00;16.25;;;;;6.97;76.06;101479.59;6163516;23;11572;-70
2021/01/23 03:18:10;;;;;;;;;22.25;22.25;;;;;6.79;76.47;101478.38;6137858;23;12804;-71
2021/01/23 03:20:38;;;;;;;;;16.00;16.00;;;;;6.89;76.32;101466.47;6137579;23;12347;-71
2021/01/23 03:23:33;;;;;;;;;21.50;21.00;;;;;6.87;76.25;101464.00;6154101;23;11635;-71
2021/01/23 03:26:29;;;;;;;;;18.25;18.25;;;;;6.94;76.15;101466.44;6153379;23;11581;-71
2021/01/23 03:28:56;;;;;;;;;17.50;16.75;;;;;6.93;76.27;101468.38;6128667;23;11686;-70
2021/01/23 03:31:25;;;;;;;;;17.50;16.75;;;;;6.96;75.99;101469.72;6163347;23;11585;-71
2021/01/23 03:33:52;;;;;;;;;18.25;18.25;;;;;6.85;76.03;101471.72;6163106;23;11607;-71
2021/01/23 03:36:20;;;;;;;;;18.25;17.00;;;;;6.91;76.06;101476.09;6137553;23;11582;-71
2021/01/23 03:38:56;;;;;;;;;18.50;18.50;;;;;6.92;75.83;101474.16;6163106;23;11605;-70
2021/01/23 03:41:23;;;;;;;;;17.00;17.00;;;;;6.97;75.64;101476.84;6154353;23;11611;-70
2021/01/23 03:44:19;;;;;;;;;17.50;17.50;;;;;6.91;75.84;101472.53;6154010;23;11666;-70
2021/01/23 03:47:14;;;;;;;;;20.00;20.00;;;;;6.96;75.45;101476.03;6153310;23;11612;-70
2021/01/23 03:49:42;;;;;;;;;19.00;19.00;;;;;6.94;75.90;101481.00;6154343;23;11654;-70
2021/01/23 03:52:12;;;;;;;;;18.75;18.75;;;;;6.99;75.49;101471.09;6162987;23;11581;-70
2021/01/23 03:54:44;;;;;;;;;17.50;17.50;;;;;7.01;75.21;101474.34;6163087;23;11595;-70
2021/01/23 03:57:39;;;;;;;;;23.00;23.00;;;;;7.00;74.97;101475.47;6153123;23;11577;-70
2021/01/23 04:00:35;;;;;;;;;17.00;17.00;;;;;6.87;75.65;101474.19;6153149;23;11623;-70
2021/01/23 04:03:03;;;;;;;;;20.25;20.25;;;;;6.93;75.34;101479.38;6164156;23;11562;-70
2021/01/23 04:05:30;;;;;;;;;17.50;17.50;;;;;6.92;75.51;101482.41;6164846;23;11574;-70
2021/01/23 04:07:58;;;;;;;;;15.00;15.00;;;;;6.86;75.75;101480.81;6164796;23;11621;-70
2021/01/23 04:10:27;;;;;;;;;18.00;18.00;;;;;6.93;75.24;101478.53;6164724;23;11595;-70
2021/01/23 04:13:03;;;;;;;;;15.50;15.50;;;;;7.01;75.23;101483.44;6164693;23;11612;-70
2021/01/23 04:15:31;;;;;;;;;15.75;15.75;;;;;7.05;74.92;101478.97;6139185;23;11571;-70
2021/01/23 04:18:13;;;;;;;;;20.75;18.50;;;;;6.97;74.59;101476.84;6155070;23;11584;-70
2021/01/23 04:20:40;;;;;;;;;21.25;20.25;;;;;7.02;74.85;101478.75;6164954;23;11589;-70
2021/01/23 04:23:08;;;;;;;;;18.00;18.00;;;;;6.97;74.67;101476.84;6164717;23;11605;-70
2021/01/23 04:25:35;;;;;;;;;26.75;26.75;;;;;6.99;74.61;101466.41;6164843;23;11594;-70
2021/01/23 04:28:03;;;;;;;;;26.00;25.75;;;;;6.94;74.34;101470.00;6164881;23;11602;-70
2021/01/23 04:30:31;;;;;;;;;26.25;25.75;;;;;6.95;74.46;101470.81;6164668;23;11613;-70
2021/01/23 04:32:58;;;;;;;;;39.00;38.50;;;;;6.94;74.31;101471.94;6164581;23;11636;-70
2021/01/23 04:35:27;;;;;;;;;41.75;38.50;;;;;6.86;74.26;101456.88;6164844;23;11691;-71
2021/01/23 04:38:16;;;;;;;;;40.75;39.00;;;;;6.92;74.15;101465.91;6157272;23;11672;-71
2021/01/23 04:40:44;;;;;;;;;28.75;28.75;;;;;6.93;74.46;101473.88;6164890;23;11604;-71
2021/01/23 04:43:12;;;;;;;;;32.00;32.00;;;;;6.95;74.10;101468.06;6155843;23;11600;-71
2021/01/23 04:45:40;;;;;;;;;32.25;31.00;;;;;6.91;74.15;101473.34;6164472;23;11750;-71
2021/01/23 04:48:08;;;;;;;;;23.00;21.75;;;;;6.89;74.31;101467.28;6164574;23;11617;-71
2021/01/23 04:50:36;;;;;;;;;12.50;12.00;;;;;7.03;73.90;101474.88;6164692;23;11619;-71
2021/01/23 04:53:33;;;;;;;;;21.00;20.00;;;;;6.99;74.01;101473.84;6155471;23;11652;-71
2021/01/23 04:56:29;;;;;;;;;21.25;19.50;;;;;7.04;73.60;101471.03;6154184;23;11703;-71
2021/01/23 04:59:25;;;;;;;;;23.25;22.25;;;;;7.04;74.00;101474.59;6154665;23;11711;-71
2021/01/23 05:02:13;;;;;;;;;27.00;25.50;;;;;7.03;73.95;101469.38;6164056;23;11579;-71
2021/01/23 05:05:05;;;;;;;;;23.75;23.00;;;;;7.07;73.75;101468.53;6156763;23;11582;-71
2021/01/23 05:07:34;;;;;;;;;24.50;23.00;;;;;7.03;73.79;101472.13;6156053;23;11722;-71
2021/01/23 05:10:18;;;;;;;;;18.75;18.75;;;;;6.93;74.05;101470.28;6164395;23;11572;-71
2021/01/23 05:12:57;;;;;;;;;18.25;18.25;;;;;7.09;73.63;101477.31;6138211;23;11601;-71
2021/01/23 05:15:44;;;;;;;;;15.50;15.50;;;;;7.09;73.36;101474.56;6156635;23;11599;-71
2021/01/23 05:18:12;;;;;;;;;14.50;14.50;;;;;7.03;73.61;101472.13;6164333;23;11570;-71
2021/01/23 05:20:45;;;;;;;;;9.00;9.00;;;;;7.09;73.59;101471.00;6164355;23;11577;-71
2021/01/23 05:23:15;;;;;;;;;13.75;13.50;;;;;7.01;73.81;101469.69;6138560;23;11558;-71
2021/01/23 05:25:44;;;;;;;;;13.00;13.00;;;;;6.96;73.89;101470.53;6164176;23;12218;-71
2021/01/23 05:28:13;;;;;;;;;14.25;14.00;;;;;6.96;73.47;101461.47;6164331;23;11582;-71
2021/01/23 05:30:41;;;;;;;;;16.00;16.00;;;;;6.89;74.06;101469.22;6164004;23;11585;-71
2021/01/23 05:33:10;;;;;;;;;12.00;12.00;;;;;6.95;73.57;101463.38;6164049;23;11576;-72
2021/01/23 05:35:40;;;;;;;;;13.50;13.00;;;;;6.94;73.70;101460.94;6138687;23;11558;-72
2021/01/23 05:38:22;;;;;;;;;13.75;13.75;;;;;6.84;73.88;101472.84;6164103;23;12342;-72
2021/01/23 05:41:11;;;;;;;;;14.25;13.25;;;;;6.91;73.96;101469.78;6163935;23;12278;-72
2021/01/23 05:43:41;;;;;;;;;13.25;13.25;;;;;6.94;73.48;101478.25;6163937;23;11571;-72
2021/01/23 05:46:26;;;;;;;;;18.00;16.50;;;;;6.97;73.78;101472.16;6164063;23;11665;-71
2021/01/23 05:48:55;;;;;;;;;12.00;12.00;;;;;7.00;73.64;101479.03;6163901;23;11594;-72
2021/01/23 05:51:23;;;;;;;;;13.25;13.25;;;;;7.03;73.50;101474.88;6155145;23;11567;-71
2021/01/23 05:53:50;;;;;;;;;14.00;14.00;;;;;6.94;73.63;101475.50;6164143;23;11570;-72
2021/01/23 05:56:27;;;;;;;;;9.50;9.50;;;;;7.02;73.82;101468.56;6163960;23;11575;-71
2021/01/23 05:58:54;;;;;;;;;15.25;14.25;;;;;7.09;73.34;101473.75;6163934;23;11522;-71
2021/01/23 06:01:38;;;;;;;;;10.50;10.50;;;;;7.04;73.14;101469.09;6154631;23;11576;-71
2021/01/23 06:04:34;;;;;;;;;10.75;9.50;;;;;7.00;73.63;101467.22;6154176;23;11559;-71
2021/01/23 06:07:40;;;;;;;;;13.75;13.75;;;;;7.15;73.06;101472.59;6154659;23;11599;-71
2021/01/23 06:10:37;;;;;;;;;13.75;10.25;;;;;7.06;73.03;101464.16;6154491;23;11603;-71
2021/01/23 06:13:35;;;;;;;;;13.75;13.75;;;;;7.25;72.98;101475.25;6154619;23;12327;-71
2021/01/23 06:16:03;;;;;;;;;9.75;9.75;;;;;7.28;72.88;101477.41;6163664;23;12303;-71
2021/01/23 06:18:33;;;;;;;;;10.00;9.75;;;;;7.24;72.91;101476.34;6163729;23;11520;-71
2021/01/23 06:21:02;;;;;;;;;14.25;14.25;;;;;7.27;72.94;101470.25;6163637;23;11572;-71
2021/01/23 06:23:48;;;;;;;;;12.00;9.50;;;;;7.33;72.89;101469.09;6154439;23;11591;-71
2021/01/23 06:26:53;;;;;;;;;14.50;13.75;;;;;7.32;73.15;101463.91;6153572;23;11576;-71
2021/01/23 06:29:49;;;;;;;;;22.75;20.75;;;;;7.39;72.75;101464.38;6154349;23;11647;-71
2021/01/23 06:32:44;;;;;;;;;18.25;18.25;;;;;7.42;72.83;101458.28;6134049;23;11575;-71
2021/01/23 06:35:40;;;;;;;;;16.00;16.00;;;;;7.42;73.07;101461.03;6135376;23;11579;-71
2021/01/23 06:38:36;;;;;;;;;17.25;17.25;;;;;7.50;72.90;101461.22;6153117;23;11583;-71
2021/01/23 06:41:24;;;;;;;;;33.00;25.25;;;;;7.56;72.61;101463.94;6163160;23;11582;-71
2021/01/23 06:44:06;;;;;;;;;22.75;22.50;;;;;7.55;72.45;101456.78;6155247;23;11577;-71
2021/01/23 06:46:35;;;;;;;;;19.00;19.00;;;;;7.60;72.39;101460.31;6162954;23;11579;-71
2021/01/23 06:49:04;;;;;;;;;23.00;23.00;;;;;7.64;72.68;101455.03;6163311;23;11567;-71
2021/01/23 06:51:32;;;;;;;;;23.00;22.00;;;;;7.65;72.65;101453.91;6162743;23;11571;-71
2021/01/23 06:54:12;;;;;;;;;14.00;14.00;;;;;7.66;72.31;101461.88;6163087;23;11599;-71
2021/01/23 06:56:51;;;;;;;;;18.75;15.50;;;;;7.63;72.70;101458.91;6163450;23;11570;-71
2021/01/23 06:59:36;;;;;;;;;11.00;11.00;;;;;7.74;72.22;101463.16;6162969;23;11599;-71
2021/01/23 07:02:14;;;;;;;;;15.50;15.50;;;;;7.73;72.14;101459.59;6162904;23;11580;-71
2021/01/23 07:04:50;;;;;;;;;86.67;68.67;;;;;7.75;72.15;101453.81;6163169;23;11641;-71
2021/01/23 07:07:46;;;;;;;;;31.75;30.00;;;;;7.71;72.21;101459.06;6153132;23;8809;-72
2021/01/23 07:10:17;;;;;;;;;33.00;29.75;;;;;7.78;72.14;101455.97;6163068;23;11669;-74
2021/01/23 07:12:46;;;;;;;;;12.00;12.00;;;;;7.61;72.55;101450.13;6137829;23;11606;-73
2021/01/23 07:15:28;;;;;;;;;23.00;16.25;;;;;7.71;72.63;101452.75;6132420;23;11603;-74
2021/01/23 07:17:57;;;;;;;;;25.25;22.50;;;;;7.71;72.23;101445.31;6128732;23;11690;-73
2021/01/23 07:20:24;;;;;;;;;15.50;15.50;;;;;7.64;72.58;101447.59;6163510;23;11592;-73
2021/01/23 07:22:57;;;;;;;;;15.25;15.25;;;;;7.75;72.66;101442.78;6163445;23;11589;-73
2021/01/23 07:25:25;;;;;;;;;27.50;23.00;;;;;7.81;71.94;101453.44;6163451;23;11602;-73
2021/01/23 07:27:53;;;;;;;;;15.50;15.50;;;;;7.80;72.19;101440.78;6163357;23;11599;-74
2021/01/23 07:30:21;;;;;;;;;21.50;21.50;;;;;7.78;72.19;101439.44;6163096;23;11600;-73
2021/01/23 07:32:49;;;;;;;;;24.25;24.25;;;;;7.85;72.25;101450.94;6162965;23;11533;-72
2021/01/23 07:35:18;;;;;;;;;21.50;19.00;;;;;7.68;72.73;101450.59;6163253;23;11619;-73
2021/01/23 07:37:51;;;;;;;;;23.75;23.75;;;;;7.82;72.41;101462.53;6163059;23;12313;-73
2021/01/23 07:40:25;;;;;;;;;23.50;23.50;;;;;7.92;72.15;101445.06;6165255;23;11594;-73
2021/01/23 07:42:57;;;;;;;;;30.00;25.75;;;;;7.89;72.27;101457.47;6157725;23;11668;-73
2021/01/23 07:45:24;;;;;;;;;32.50;31.75;;;;;7.93;72.30;101449.47;6165225;23;11566;-73
2021/01/23 07:47:56;;;;;;;;;31.25;30.25;;;;;7.92;71.99;101445.88;6165218;23;11581;-73
2021/01/23 07:50:25;;;;;;;;;27.25;27.25;;;;;7.96;72.05;101454.38;6164975;23;11585;-73
2021/01/23 07:52:53;;;;;;;;;25.50;23.50;;;;;7.93;71.88;101449.47;6164960;23;11596;-73
2021/01/23 07:55:37;;;;;;;;;18.25;17.00;;;;;7.94;71.88;101451.09;6165118;23;11611;-73
2021/01/23 07:58:05;;;;;;;;;30.25;22.75;;;;;7.95;72.19;101450.78;6165402;23;12308;-73
2021/01/23 08:00:32;;;;;;;;;23.00;22.25;;;;;7.92;71.81;101445.88;6165103;23;11605;-74
2021/01/23 08:02:59;;;;;;;;;24.25;24.25;;;;;7.93;72.05;101446.69;6164941;23;11593;-73
2021/01/23 08:05:49;;;;;;;;;35.00;34.00;;;;;7.97;71.86;101439.47;6165009;23;11598;-73
2021/01/23 08:08:36;;;;;;;;;29.50;27.75;;;;;7.98;72.17;101444.72;6165000;23;11610;-74
2021/01/23 08:11:05;;;;;;;;;22.50;20.50;;;;;8.00;72.19;101441.66;6164982;23;11593;-73
2021/01/23 08:13:33;;;;;;;;;26.75;23.50;;;;;8.04;71.77;101442.69;6165081;23;11564;-73
2021/01/23 08:16:15;;;;;;;;;23.50;20.75;;;;;8.05;71.79;101436.91;6165054;23;11575;-73
2021/01/23 08:18:43;;;;;;;;;29.75;26.50;;;;;8.04;72.27;101437.19;6156318;23;11586;-73
2021/01/23 08:21:18;;;;;;;;;27.50;27.50;;;;;8.06;72.06;101438.53;6156654;23;11561;-73
2021/01/23 08:23:46;;;;;;;;;29.75;29.50;;;;;8.15;72.04;101435.94;6156267;23;11669;-73
2021/01/23 08:26:14;;;;;;;;;30.25;29.50;;;;;8.11;72.45;101429.38;6156583;23;11625;-73
2021/01/23 08:28:44;;;;;;;;;24.50;24.00;;;;;8.16;72.01;101434.81;6164733;23;11587;-73
2021/01/23 08:31:22;;;;;;;;;25.00;25.00;;;;;8.07;72.39;101434.66;6164702;23;11667;-73
2021/01/23 08:33:54;;;;;;;;;29.00;29.00;;;;;8.20;71.91;101426.78;6164882;23;11632;-73
2021/01/23 08:36:26;;;;;;;;;24.50;24.50;;;;;8.14;72.41;101419.72;6164867;23;11598;-73
2021/01/23 08:39:02;;;;;;;;;23.50;22.00;;;;;8.27;71.69;101424.47;6164869;23;11585;-73
2021/01/23 08:41:30;;;;;;;;;16.00;16.00;;;;;8.33;71.59;101418.59;6155923;23;11528;-73
2021/01/23 08:43:57;;;;;;;;;19.00;19.00;;;;;8.27;71.86;101417.00;6164811;23;11678;-73
2021/01/23 08:46:25;;;;;;;;;21.50;21.50;;;;;8.29;71.97;101423.06;6164721;23;11563;-73
2021/01/23 08:48:53;;;;;;;;;23.25;20.00;;;;;8.48;71.33;101420.31;6163922;23;11583;-73
2021/01/23 08:51:20;;;;;;;;;21.50;21.50;;;;;8.46;71.15;101419.00;6164420;23;11673;-73
2021/01/23 08:53:47;;;;;;;;;22.50;22.50;;;;;8.53;71.19;101416.69;6164548;23;11601;-73
2021/01/23 08:56:15;;;;;;;;;14.50;14.50;;;;;8.61;71.14;101416.00;6164687;23;11543;-73
2021/01/23 08:58:42;;;;;;;;;20.25;20.25;;;;;8.57;70.94;101407.50;6164629;23;11591;-73
2021/01/23 09:01:10;;;;;;;;;20.75;20.75;;;;;8.64;71.13;101402.41;6138769;23;11597;-73
2021/01/23 09:03:38;;;;;;;;;20.00;20.00;;;;;8.58;71.58;101411.06;6164399;23;11508;-73
2021/01/23 09:06:07;;;;;;;;;25.75;24.50;;;;;8.57;72.05;101399.22;6155448;23;11543;-73
2021/01/23 09:08:36;;;;;;;;;19.75;19.75;;;;;8.66;71.73;101398.53;6154321;23;11619;-73
2021/01/23 09:11:04;;;;;;;;;20.50;20.50;;;;;8.72;71.36;101400.91;6129549;23;11551;-73
2021/01/23 09:13:32;;;;;;;;;20.00;20.00;;;;;8.70;71.68;101403.16;6164343;23;11681;-73
2021/01/23 09:15:59;;;;;;;;;22.00;20.50;;;;;8.73;71.58;101402.56;6164371;23;11507;-73
2021/01/23 09:18:27;;;;;;;;;17.75;17.75;;;;;8.70;71.74;101413.38;6129689;23;11541;-73
2021/01/23 09:20:56;;;;;;;;;21.75;18.50;;;;;8.78;71.48;101409.94;6164189;23;11515;-73
2021/01/23 09:23:24;;;;;;;;;26.25;25.00;;;;;8.96;71.09;101420.09;6164230;23;12256;-73
2021/01/23 09:25:51;;;;;;;;;19.50;19.50;;;;;8.80;71.46;101415.97;6138543;23;11540;-73
2021/01/23 09:28:19;;;;;;;;;17.25;17.25;;;;;8.90;71.16;101421.31;6155380;23;12360;-73
2021/01/23 09:30:47;;;;;;;;;16.25;16.25;;;;;8.93;71.04;101420.72;6164102;23;11515;-73
2021/01/23 09:33:14;;;;;;;;;25.50;24.75;;;;;8.95;71.38;101425.91;6164069;23;11574;-73
2021/01/23 09:35:42;;;;;;;;;26.50;24.25;;;;;8.88;70.90;101427.13;6164106;23;11518;-73
2021/01/23 09:38:09;;;;;;;;;13.75;13.75;;;;;8.94;70.75;101421.53;6138559;23;11560;-73
2021/01/23 09:40:37;;;;;;;;;20.00;20.00;;;;;8.74;70.44;101422.69;6164222;23;11651;-73
2021/01/23 09:43:05;;;;;;;;;20.75;20.75;;;;;8.78;70.60;101415.44;6156012;23;11587;-73
2021/01/23 09:45:32;;;;;;;;;21.25;17.00;;;;;8.74;70.28;101428.19;6155652;23;12244;-73
2021/01/23 09:48:00;;;;;;;;;19.50;19.50;;;;;8.48;70.60;101425.03;6164039;23;12212;-73
2021/01/23 09:50:42;;;;;;;;;18.75;18.75;;;;;8.58;70.39;101417.41;6164027;23;11529;-73
2021/01/23 09:53:09;;;;;;;;;23.00;21.50;;;;;8.50;70.92;101404.31;6164088;23;11532;-72
2021/01/23 09:55:37;;;;;;;;;22.75;22.75;;;;;8.56;70.72;101405.03;6138440;23;11604;-72
2021/01/23 09:58:04;;;;;;;;;24.00;23.25;;;;;8.58;70.81;101403.63;6164086;23;11518;-73
2021/01/23 10:00:32;;;;;;;;;22.25;22.25;;;;;8.64;71.03;101398.84;6163838;23;11520;-73
2021/01/23 10:02:59;;;;;;;;;20.25;20.25;;;;;8.67;71.15;101395.50;6163783;23;11538;-73
2021/01/23 10:05:27;;;;;;;;;25.25;24.50;;;;;8.72;71.45;101391.81;6138364;23;11538;-73
2021/01/23 10:07:55;;;;;;;;;20.75;20.50;;;;;8.73;71.36;101398.97;6138358;23;11514;-73
2021/01/23 10:10:24;;;;;;;;;22.75;22.75;;;;;8.78;72.06;101390.63;6163762;23;11531;-74
2021/01/23 10:12:52;;;;;;;;;22.25;22.25;;;;;8.83;72.20;101390.56;6137851;23;11545;-73
2021/01/23 10:15:20;;;;;;;;;20.75;19.75;;;;;8.87;71.95;101397.09;6163951;23;11524;-73
2021/01/23 10:17:47;;;;;;;;;26.25;26.25;;;;;8.97;71.58;101388.66;6129240;23;12241;-73
2021/01/23 10:20:15;;;;;;;;;20.50;19.75;;;;;9.01;71.29;101389.66;6105221;23;11560;-73
2021/01/23 10:22:43;;;;;;;;;29.75;26.75;;;;;8.98;71.45;101383.94;6163725;23;11535;-73
2021/01/23 10:25:17;;;;;;;;;28.75;28.75;;;;;8.96;71.57;101377.91;6139562;23;11537;-73
2021/01/23 10:27:45;;;;;;;;;28.50;28.50;;;;;8.99;71.38;101378.13;6138122;23;11526;-73
2021/01/23 10:30:13;;;;;;;;;26.25;26.00;;;;;8.93;71.74;101370.25;6163656;23;12397;-72
2021/01/23 10:32:42;;;;;;;;;27.25;26.00;;;;;8.88;71.93;101369.19;6163535;23;11520;-73
2021/01/23 10:35:10;;;;;;;;;27.75;26.75;;;;;9.05;71.37;101362.31;6155079;23;11557;-73
2021/01/23 10:37:38;;;;;;;;;30.00;30.00;;;;;8.86;72.42;101363.16;6155018;23;11528;-73
2021/01/23 10:40:07;;;;;;;;;37.50;32.25;;;;;9.08;71.73;101364.44;6163591;23;11538;-73
2021/01/23 10:42:35;;;;;;;;;25.00;24.00;;;;;9.07;71.67;101360.88;6157497;23;11564;-73
2021/01/23 10:45:05;;;;;;;;;31.00;31.00;;;;;8.99;71.71;101356.06;6163696;23;12258;-73
2021/01/23 10:47:35;;;;;;;;;30.75;28.50;;;;;8.91;72.14;101359.50;6163447;23;11687;-73
2021/01/23 10:50:07;;;;;;;;;26.25;22.50;;;;;8.90;72.72;101361.44;6163519;23;11590;-73
2021/01/23 10:52:34;;;;;;;;;30.25;29.00;;;;;8.96;72.60;101345.59;6163310;23;11519;-73
2021/01/23 10:55:07;;;;;;;;;28.00;26.75;;;;;9.00;72.33;101351.34;6163544;23;11619;-72
2021/01/23 10:57:35;;;;;;;;;27.75;27.00;;;;;9.02;72.74;101346.34;6137850;23;11520;-73
2021/01/23 11:00:07;;;;;;;;;26.50;25.50;;;;;9.07;72.55;101343.50;6163482;23;11604;-73
2021/01/23 11:02:39;;;;;;;;;23.75;20.25;;;;;9.12;73.02;101348.91;6154719;23;11526;-72
2021/01/23 11:05:10;;;;;;;;;29.25;26.00;;;;;8.96;73.32;101340.09;6163423;23;11597;-72
2021/01/23 11:07:55;;;;;;;;;25.50;25.50;;;;;9.13;73.16;101340.34;6163304;23;11582;-73
2021/01/23 11:10:32;;;;;;;;;29.00;26.00;;;;;9.12;72.86;101335.09;6162919;23;12291;-72
2021/01/23 11:12:59;;;;;;;;;30.00;30.00;;;;;9.13;73.25;101336.75;6128786;23;11577;-72
2021/01/23 11:15:27;;;;;;;;;31.00;30.50;;;;;9.17;73.30;101327.56;6163415;23;11607;-73
2021/01/23 11:17:54;;;;;;;;;32.50;31.00;;;;;9.30;73.58;101328.69;6163343;23;11580;-72
2021/01/23 11:20:22;;;;;;;;;24.75;24.75;;;;;9.35;73.50;101333.25;6163186;23;11547;-72
2021/01/23 11:22:50;;;;;;;;;33.25;33.25;;;;;9.35;73.20;101333.25;6128418;23;11563;-70
2021/01/23 11:25:18;;;;;;;;;31.00;27.00;;;;;9.44;72.98;101331.44;6163161;23;12304;-73
2021/01/23 11:27:45;;;;;;;;;19.75;19.75;;;;;9.36;73.65;101332.16;6163190;23;11543;-73
2021/01/23 11:30:14;;;;;;;;;24.75;24.75;;;;;9.41;73.26;101327.34;6163110;23;11625;-73
2021/01/23 11:32:43;;;;;;;;;15.50;13.75;;;;;9.51;72.93;101333.78;6154827;23;11507;-72
2021/01/23 11:35:11;;;;;;;;;32.00;32.00;;;;;9.42;73.08;101341.97;6137643;23;11522;-73
2021/01/23 11:37:39;;;;;;;;;21.00;19.75;;;;;9.57;72.98;101329.78;6163363;23;11618;-73
2021/01/23 11:40:08;;;;;;;;;25.50;25.25;;;;;9.50;73.21;101341.25;6163318;23;11538;-73
2021/01/23 11:42:35;;;;;;;;;26.75;24.25;;;;;9.43;73.01;101338.06;6129009;23;11568;-73
2021/01/23 11:45:08;;;;;;;;;29.25;29.25;;;;;9.39;73.39;101335.13;6163124;23;12306;-73
2021/01/23 11:47:39;;;;;;;;;26.00;25.25;;;;;9.42;73.18;101337.25;6138030;23;11584;-73
2021/01/23 11:50:07;;;;;;;;;26.50;25.50;;;;;9.52;73.08;101332.69;6162957;23;11545;-73
2021/01/23 11:52:35;;;;;;;;;25.50;25.50;;;;;9.63;72.31;101325.78;6163040;23;11528;-71